ADDS METAR Data INFO
IDs: Format: Raw Decoded Include TAF

Data at: 0857 UTC 19 Jun 2018

KEDN 190835Z AUTO 00000KT 10SM CLR 23/23 A3005 RMK AO2 T02280228
KEDN 190815Z AUTO 00000KT 10SM CLR 23/23 A3005 RMK AO2 T02270227
KEDN 190755Z AUTO 00000KT 10SM CLR 23/23 A3005 RMK AO2 T02300230
KEDN 190735Z AUTO 00000KT 10SM CLR 23/23 A3005 RMK AO2 T02320232
KEDN 190715Z AUTO 00000KT 10SM CLR 23/23 A3005 RMK AO2 T02310231
KEDN 190655Z AUTO 00000KT 10SM CLR 23/23 A3005 RMK AO2 T02300230
KEDN 190635Z AUTO 00000KT 10SM CLR 23/23 A3006 RMK AO2 T02320232
KEDN 190615Z AUTO 00000KT 10SM CLR 24/24 A3006 RMK AO2 T02350235
KEDN 190555Z AUTO 00000KT 10SM CLR 24/24 A3006 RMK AO2 T02380238 10285 20236
KEDN 190535Z AUTO 00000KT 10SM CLR 24/24 A3006 RMK AO2 T02380238
KEDN 190515Z AUTO 00000KT 10SM CLR 24/24 A3006 RMK AO2 T02380238
KEDN 190455Z AUTO 00000KT 10SM CLR 24/24 A3007 RMK AO2 T02400240 403190213
KEDN 190435Z AUTO 00000KT 10SM CLR 24/24 A3007 RMK AO2 T02400240
KEDN 190415Z AUTO 00000KT 10SM CLR 24/24 A3008 RMK AO2 T02430243
KEDN 190355Z AUTO 00000KT 10SM CLR 25/25 A3008 RMK AO2 T02450245
KEDN 190335Z AUTO 00000KT 10SM CLR 25/25 A3009 RMK AO2 T02450245
KEDN 190315Z AUTO 00000KT 10SM CLR 25/25 A3009 RMK AO2 T02460246
KEDN 190255Z AUTO 00000KT 10SM CLR 25/25 A3009 RMK AO2 T02470247
KEDN 190235Z AUTO 00000KT 10SM SCT060 25/25 A3008 RMK AO2 T02490249
KEDN 190215Z AUTO 00000KT 10SM CLR 25/25 A3008 RMK AO2 T02510250
KEDN 190155Z AUTO 00000KT 10SM CLR 26/25 A3007 RMK AO2 T02550250
KEDN 190135Z AUTO 00000KT 10SM CLR 26/25 A3007 RMK AO2 T02570250
KEDN 190115Z AUTO 00000KT 10SM CLR 26/25 A3006 RMK AO2 T02600254
KEDN 190055Z AUTO 00000KT 10SM CLR 27/25 A3006 RMK AO2 T02650250
KEDN 190035Z AUTO 00000KT 10SM CLR 27/26 A3006 RMK AO2 T02740256
KEDN 190015Z AUTO 00000KT 10SM CLR 28/25 A3006 RMK AO2 T02800253
KEDN 182355Z AUTO 00000KT 10SM CLR 28/25 A3006 RMK AO2 LTG DSNT NW T02840248 10319 20275
KEDN 182335Z AUTO 00000KT 10SM SCT033 SCT045 SCT055 28/25 A3006 RMK AO2 LTG DSNT NW T02750254
KEDN 182315Z AUTO 01003KT 10SM RA SCT033 BKN042 OVC050 28/25 A3006 RMK AO2 T02810248
KEDN 182255Z AUTO 02007KT 10SM -RA BKN044 BKN090 31/23 A3007 RMK AO2 T03070233
KEDN 182235Z AUTO 00000KT 10SM CLR 32/23 A3007 RMK AO2 T03150227
KEDN 182215Z AUTO 31003KT 10SM SCT045 32/23 A3007 RMK AO2 T03160227
KEDN 182155Z AUTO 28003KT 10SM SCT045 32/23 A3007 RMK AO2 T03150226
KEDN 182135Z AUTO 26003KT 10SM SCT045 31/22 A3008 RMK AO2 T03130224
KEDN 182115Z AUTO 00000KT 10SM CLR 31/22 A3009 RMK AO2 T03120222
KEDN 182055Z AUTO 32003KT 10SM CLR 32/23 A3009 RMK AO2 T03180229
KEDN 182035Z AUTO 33004KT 10SM CLR 31/23 A3009 RMK AO2 T03140228
KEDN 182015Z AUTO 00000KT 10SM CLR 31/23 A3010 RMK AO2 T03110229
KEDN 181955Z AUTO 32003KT 10SM CLR 31/23 A3011 RMK AO2 T03120225
KEDN 181935Z AUTO 00000KT 10SM CLR 31/23 A3012 RMK AO2 T03100230
KEDN 181915Z AUTO 00000KT 10SM SCT036 SCT042 31/23 A3012 RMK AO2 T03080231
KEDN 181855Z AUTO 02004KT 10SM SCT036 31/24 A3012 RMK AO2 T03070235
KEDN 181835Z AUTO 34003KT 10SM CLR 31/23 A3013 RMK AO2 T03070233
KEDN 181815Z AUTO 00000KT 10SM CLR 30/23 A3014 RMK AO2 T02980231
KEDN 181755Z AUTO 00000KT 10SM CLR 30/23 A3015 RMK AO2 T03000230 10306 20221
KEDN 181735Z AUTO 00000KT 10SM CLR 30/23 A3015 RMK AO2 T03010233
KEDN 181715Z AUTO 00000KT 10SM SCT031 30/23 A3016 RMK AO2 T02980229
KEDN 181655Z AUTO 00000KT 10SM SCT031 30/23 A3016 RMK AO2 T02990234
KEDN 181635Z AUTO 35003KT 10SM CLR 29/23 A3017 RMK AO2 T02940233
KEDN 181615Z AUTO 00000KT 10SM CLR 29/23 A3017 RMK AO2 T02910233
KEDN 181555Z AUTO 00000KT 10SM CLR 29/23 A3017 RMK AO2 T02880229
KEDN 181535Z AUTO 32005KT 10SM CLR 28/23 A3018 RMK AO2 T02820230
KEDN 181515Z AUTO 34003KT 10SM CLR 28/23 A3018 RMK AO2 T02790231
KEDN 181455Z AUTO 36003KT 10SM CLR 28/24 A3018 RMK AO2 T02800236
KEDN 181435Z AUTO 34004KT 10SM CLR 27/23 A3018 RMK AO2 T02720231
KEDN 181415Z AUTO 00000KT 10SM CLR 27/23 A3018 RMK AO2 T02710231
KEDN 181355Z AUTO 00000KT 10SM CLR 26/23 A3018 RMK AO2 T02630233
KEDN 181335Z AUTO 00000KT 10SM CLR 26/23 A3018 RMK AO2 T02610234
KEDN 181315Z AUTO 00000KT 10SM CLR 25/23 A3017 RMK AO2 T02500234
KEDN 181255Z AUTO 00000KT 10SM CLR 24/23 A3017 RMK AO2 T02390231
KEDN 181235Z AUTO 00000KT 10SM CLR 23/23 A3017 RMK AO2 T02270227
KEDN 181215Z AUTO 00000KT 10SM CLR 22/22 A3017 RMK AO2 T02230223
KEDN 181155Z AUTO 00000KT 10SM CLR 22/22 A3016 RMK AO2 T02240224 10227 20213
KEDN 181135Z AUTO 00000KT 10SM CLR 22/22 A3016 RMK AO2 T02180218
KEDN 181115Z AUTO 00000KT 10SM CLR 22/22 A3015 RMK AO2 T02180218
KEDN 181055Z AUTO 00000KT 10SM CLR 22/22 A3015 RMK AO2 T02180218
KEDN 181035Z AUTO 00000KT 10SM CLR 22/22 A3014 RMK AO2 T02180218
KEDN 181015Z AUTO 00000KT 10SM CLR 22/22 A3013 RMK AO2 T02150215
KEDN 180955Z AUTO 00000KT 10SM CLR 21/21 A3012 RMK AO2 T02140214
KEDN 180935Z AUTO 00000KT 10SM CLR 22/22 A3012 RMK AO2 T02150215
KEDN 180915Z AUTO 00000KT 10SM CLR 22/22 A3012 RMK AO2 T02160216
KEDN 180855Z AUTO 00000KT 10SM CLR 22/22 A3012 RMK AO2 T02150215
KEDN 180835Z AUTO 00000KT 10SM CLR 22/22 A3011 RMK AO2 T02170217
KEDN 180815Z AUTO 00000KT 10SM CLR 22/22 A3011 RMK AO2 T02170217
KEDN 180755Z AUTO 00000KT 10SM CLR 22/22 A3011 RMK AO2 T02170217
KEDN 180735Z AUTO 00000KT 10SM CLR 22/22 A3011 RMK AO2 T02210221
KEDN 180715Z AUTO 00000KT 10SM CLR 22/22 A3011 RMK AO2 T02230223
KEDN 180655Z AUTO 00000KT 10SM CLR 22/22 A3012 RMK AO2 T02230223
KEDN 180635Z AUTO 00000KT 10SM CLR 23/23 A3012 RMK AO2 T02250225
KEDN 180615Z AUTO 00000KT 10SM CLR 23/23 A3012 RMK AO2 T02260226
KEDN 180555Z AUTO 00000KT 10SM CLR 23/23 A3013 RMK AO2 T02250225 10261 20225
KEDN 180535Z AUTO 00000KT 10SM CLR 23/23 A3013 RMK AO2 T02250225
KEDN 180515Z AUTO 00000KT 10SM CLR 23/23 A3014 RMK AO2 T02270227
KEDN 180455Z AUTO 00000KT 10SM CLR 23/23 A3014 RMK AO2 T02280228 403170227
KEDN 180435Z AUTO 00000KT 10SM CLR 23/23 A3015 RMK AO2 T02300230
KEDN 180415Z AUTO 19003KT 10SM CLR 23/23 A3015 RMK AO2 T02310231
KEDN 180355Z AUTO 00000KT 10SM CLR 23/23 A3015 RMK AO2 T02300230
KEDN 180335Z AUTO 00000KT 10SM CLR 23/23 A3016 RMK AO2 T02280228
KEDN 180315Z AUTO 00000KT 10SM CLR 23/23 A3016 RMK AO2 T02340231
KEDN 180255Z AUTO 00000KT 10SM CLR 23/23 A3016 RMK AO2 T02300230
KEDN 180235Z AUTO 00000KT 10SM CLR 23/23 A3016 RMK AO2 T02320229
KEDN 180215Z AUTO 00000KT 10SM CLR 24/23 A3015 RMK AO2 T02410227
KEDN 180155Z AUTO 00000KT 10SM CLR 24/23 A3014 RMK AO2 T02400229
KEDN 180135Z AUTO 02003KT 10SM CLR 24/23 A3013 RMK AO2 T02410230
KEDN 180115Z AUTO 00000KT 10SM CLR 25/23 A3013 RMK AO2 T02450228
KEDN 180055Z AUTO 36004KT 10SM CLR 25/23 A3013 RMK AO2 LTG DSNT W T02500228
KEDN 180035Z AUTO 33005KT 10SM SCT040 26/23 A3013 RMK AO2 LTG DSNT SE AND NW T02570226
KEDN 180015Z AUTO 00000KT 10SM OVC038 26/23 A3012 RMK AO2 LTG DSNT W T02600232
KEDN 172355Z AUTO 00000KT 10SM OVC038 26/23 A3013 RMK AO2 LTG DSNT SE T02610232 10317 20261
KEDN 172335Z AUTO 24003KT 10SM BKN040 BKN046 27/23 A3012 RMK AO2 LTG DSNT E SE AND W T02650231
KEDN 172315Z AUTO 00000KT 10SM SCT048 27/23 A3011 RMK AO2 LTG DSNT W T02670232
KEDN 172255Z AUTO 22003KT 10SM SCT048 SCT050 27/23 A3011 RMK AO2 LTG DSNT N T02700231
KEDN 172235Z AUTO 23003KT 10SM SCT048 29/24 A3010 RMK AO2 LTG DSNT E T02850236
KEDN 172215Z AUTO 00000KT 10SM CLR 30/21 A3009 RMK AO2 LTG DSNT E T02980211
KEDN 172155Z AUTO 00000KT 10SM CLR 30/21 A3009 RMK AO2 LTG DSNT E AND W T02970206
KEDN 172135Z AUTO 00000KT 10SM CLR 29/22 A3008 RMK AO2 T02890216
KEDN 172115Z AUTO 35003KT 10SM SCT030 SCT040 SCT050 28/22 A3010 RMK AO2 LTG DSNT NE THRU S T02790221